sensor_id;sensor_type;location;lat;lon;timestamp;P1;durP1;ratioP1;P2;durP2;ratioP2
75584;SDS011;64162;53.508;10.476;2023-04-03T00:00:30;6.38;;;1.80;;
75584;SDS011;64162;53.508;10.476;2023-04-03T00:02:57;5.03;;;1.60;;
75584;SDS011;64162;53.508;10.476;2023-04-03T00:07:51;3.30;;;1.60;;
75584;SDS011;64162;53.508;10.476;2023-04-03T00:10:18;5.40;;;1.70;;
75584;SDS011;64162;53.508;10.476;2023-04-03T00:12:44;4.05;;;1.60;;
75584;SDS011;64162;53.508;10.476;2023-04-03T00:15:11;5.32;;;1.95;;
75584;SDS011;64162;53.508;10.476;2023-04-03T00:17:38;5.45;;;1.80;;
75584;SDS011;64162;53.508;10.476;2023-04-03T00:20:04;5.22;;;2.00;;
75584;SDS011;64162;53.508;10.476;2023-04-03T00:22:31;4.43;;;1.80;;
75584;SDS011;64162;53.508;10.476;2023-04-03T00:24:58;4.35;;;2.00;;
75584;SDS011;64162;53.508;10.476;2023-04-03T00:27:25;6.70;;;2.15;;
75584;SDS011;64162;53.508;10.476;2023-04-03T00:29:51;7.05;;;2.33;;
75584;SDS011;64162;53.508;10.476;2023-04-03T00:32:18;5.68;;;2.55;;
75584;SDS011;64162;53.508;10.476;2023-04-03T00:34:45;5.15;;;2.28;;
75584;SDS011;64162;53.508;10.476;2023-04-03T00:37:12;6.53;;;2.80;;
75584;SDS011;64162;53.508;10.476;2023-04-03T00:39:38;6.03;;;2.53;;
75584;SDS011;64162;53.508;10.476;2023-04-03T00:42:05;5.80;;;2.22;;
75584;SDS011;64162;53.508;10.476;2023-04-03T00:46:59;4.95;;;2.17;;
75584;SDS011;64162;53.508;10.476;2023-04-03T00:49:27;5.70;;;2.35;;
75584;SDS011;64162;53.508;10.476;2023-04-03T00:51:54;4.38;;;2.08;;
75584;SDS011;64162;53.508;10.476;2023-04-03T00:54:22;6.78;;;2.17;;
75584;SDS011;64162;53.508;10.476;2023-04-03T00:56:51;4.53;;;2.00;;
75584;SDS011;64162;53.508;10.476;2023-04-03T00:59:21;5.25;;;1.92;;
75584;SDS011;64162;53.508;10.476;2023-04-03T01:01:53;3.05;;;1.63;;
75584;SDS011;64162;53.508;10.476;2023-04-03T01:04:31;3.50;;;1.63;;
75584;SDS011;64162;53.508;10.476;2023-04-03T01:07:00;5.88;;;2.00;;
75584;SDS011;64162;53.508;10.476;2023-04-03T01:09:30;5.28;;;1.90;;
75584;SDS011;64162;53.508;10.476;2023-04-03T01:14:57;3.33;;;1.77;;
75584;SDS011;64162;53.508;10.476;2023-04-03T01:17:45;8.63;;;1.98;;
75584;SDS011;64162;53.508;10.476;2023-04-03T01:22:48;5.90;;;2.58;;
75584;SDS011;64162;53.508;10.476;2023-04-03T01:25:20;6.63;;;2.00;;
75584;SDS011;64162;53.508;10.476;2023-04-03T01:27:47;4.97;;;2.10;;
75584;SDS011;64162;53.508;10.476;2023-04-03T01:30:14;3.08;;;1.65;;
75584;SDS011;64162;53.508;10.476;2023-04-03T01:32:43;4.30;;;1.83;;
75584;SDS011;64162;53.508;10.476;2023-04-03T01:35:11;4.88;;;1.90;;
75584;SDS011;64162;53.508;10.476;2023-04-03T01:37:38;2.85;;;1.50;;
75584;SDS011;64162;53.508;10.476;2023-04-03T01:40:05;4.97;;;1.83;;
75584;SDS011;64162;53.508;10.476;2023-04-03T01:42:33;3.90;;;1.90;;
75584;SDS011;64162;53.508;10.476;2023-04-03T01:45:00;5.68;;;2.00;;
75584;SDS011;64162;53.508;10.476;2023-04-03T01:47:30;3.55;;;1.85;;
75584;SDS011;64162;53.508;10.476;2023-04-03T01:49:57;9.10;;;2.38;;
75584;SDS011;64162;53.508;10.476;2023-04-03T01:52:23;3.83;;;1.85;;
75584;SDS011;64162;53.508;10.476;2023-04-03T01:54:51;2.80;;;1.70;;
75584;SDS011;64162;53.508;10.476;2023-04-03T01:57:17;4.57;;;2.10;;
75584;SDS011;64162;53.508;10.476;2023-04-03T01:59:44;4.60;;;1.90;;
75584;SDS011;64162;53.508;10.476;2023-04-03T02:02:11;4.20;;;1.52;;
75584;SDS011;64162;53.508;10.476;2023-04-03T02:04:38;5.07;;;1.75;;
75584;SDS011;64162;53.508;10.476;2023-04-03T02:07:05;5.30;;;1.80;;
75584;SDS011;64162;53.508;10.476;2023-04-03T02:11:58;2.47;;;1.60;;
75584;SDS011;64162;53.508;10.476;2023-04-03T02:14:25;4.18;;;1.85;;
75584;SDS011;64162;53.508;10.476;2023-04-03T02:16:53;3.58;;;1.80;;
75584;SDS011;64162;53.508;10.476;2023-04-03T02:19:21;11.05;;;2.10;;
75584;SDS011;64162;53.508;10.476;2023-04-03T02:21:48;8.63;;;1.92;;
75584;SDS011;64162;53.508;10.476;2023-04-03T02:24:14;3.08;;;1.80;;
75584;SDS011;64162;53.508;10.476;2023-04-03T02:26:41;3.50;;;1.63;;
75584;SDS011;64162;53.508;10.476;2023-04-03T02:29:07;2.78;;;1.80;;
75584;SDS011;64162;53.508;10.476;2023-04-03T02:31:34;5.15;;;1.60;;
75584;SDS011;64162;53.508;10.476;2023-04-03T02:34:01;3.92;;;1.83;;
75584;SDS011;64162;53.508;10.476;2023-04-03T02:36:28;4.05;;;1.70;;
75584;SDS011;64162;53.508;10.476;2023-04-03T02:38:57;3.95;;;1.50;;
75584;SDS011;64162;53.508;10.476;2023-04-03T02:41:24;7.10;;;1.73;;
75584;SDS011;64162;53.508;10.476;2023-04-03T02:43:54;6.20;;;1.80;;
75584;SDS011;64162;53.508;10.476;2023-04-03T02:46:21;4.13;;;1.73;;
75584;SDS011;64162;53.508;10.476;2023-04-03T02:48:47;4.30;;;1.55;;
75584;SDS011;64162;53.508;10.476;2023-04-03T02:51:14;2.92;;;1.52;;
75584;SDS011;64162;53.508;10.476;2023-04-03T02:53:40;3.22;;;1.50;;
75584;SDS011;64162;53.508;10.476;2023-04-03T02:56:12;3.10;;;1.30;;
75584;SDS011;64162;53.508;10.476;2023-04-03T02:58:39;7.60;;;1.80;;
75584;SDS011;64162;53.508;10.476;2023-04-03T03:01:07;4.28;;;1.60;;
75584;SDS011;64162;53.508;10.476;2023-04-03T03:03:33;6.82;;;1.85;;
75584;SDS011;64162;53.508;10.476;2023-04-03T03:06:01;7.65;;;1.80;;
75584;SDS011;64162;53.508;10.476;2023-04-03T03:08:32;4.35;;;1.90;;
75584;SDS011;64162;53.508;10.476;2023-04-03T03:10:59;4.22;;;1.67;;
75584;SDS011;64162;53.508;10.476;2023-04-03T03:13:26;6.15;;;1.90;;
75584;SDS011;64162;53.508;10.476;2023-04-03T03:15:53;5.18;;;1.40;;
75584;SDS011;64162;53.508;10.476;2023-04-03T03:18:20;7.20;;;1.90;;
75584;SDS011;64162;53.508;10.476;2023-04-03T03:20:54;4.93;;;1.67;;
75584;SDS011;64162;53.508;10.476;2023-04-03T03:23:23;4.20;;;1.73;;
75584;SDS011;64162;53.508;10.476;2023-04-03T03:25:58;8.13;;;1.90;;
75584;SDS011;64162;53.508;10.476;2023-04-03T03:28:26;5.80;;;2.13;;
75584;SDS011;64162;53.508;10.476;2023-04-03T03:30:53;2.20;;;1.42;;
75584;SDS011;64162;53.508;10.476;2023-04-03T03:33:21;2.88;;;1.55;;
75584;SDS011;64162;53.508;10.476;2023-04-03T03:35:48;5.07;;;1.65;;
75584;SDS011;64162;53.508;10.476;2023-04-03T03:38:15;5.35;;;1.73;;
75584;SDS011;64162;53.508;10.476;2023-04-03T03:40:41;8.88;;;1.90;;
75584;SDS011;64162;53.508;10.476;2023-04-03T03:43:08;3.55;;;1.80;;
75584;SDS011;64162;53.508;10.476;2023-04-03T03:45:34;5.45;;;1.60;;
75584;SDS011;64162;53.508;10.476;2023-04-03T03:48:02;3.60;;;1.40;;
75584;SDS011;64162;53.508;10.476;2023-04-03T03:50:29;6.13;;;1.55;;
75584;SDS011;64162;53.508;10.476;2023-04-03T03:52:56;4.60;;;1.75;;
75584;SDS011;64162;53.508;10.476;2023-04-03T03:55:23;5.38;;;1.50;;
75584;SDS011;64162;53.508;10.476;2023-04-03T03:57:52;2.70;;;1.58;;
75584;SDS011;64162;53.508;10.476;2023-04-03T04:00:20;7.43;;;1.67;;
75584;SDS011;64162;53.508;10.476;2023-04-03T04:02:52;6.13;;;1.90;;
75584;SDS011;64162;53.508;10.476;2023-04-03T04:05:21;10.00;;;2.03;;
75584;SDS011;64162;53.508;10.476;2023-04-03T04:07:48;4.75;;;1.90;;
75584;SDS011;64162;53.508;10.476;2023-04-03T04:10:15;5.32;;;1.55;;
75584;SDS011;64162;53.508;10.476;2023-04-03T04:12:43;5.88;;;1.80;;
75584;SDS011;64162;53.508;10.476;2023-04-03T04:17:37;3.15;;;1.75;;
75584;SDS011;64162;53.508;10.476;2023-04-03T04:20:07;5.68;;;1.70;;
75584;SDS011;64162;53.508;10.476;2023-04-03T04:22:35;2.50;;;1.70;;
75584;SDS011;64162;53.508;10.476;2023-04-03T04:25:02;3.78;;;1.52;;
75584;SDS011;64162;53.508;10.476;2023-04-03T04:27:28;2.65;;;1.50;;
75584;SDS011;64162;53.508;10.476;2023-04-03T04:29:55;2.78;;;1.33;;
75584;SDS011;64162;53.508;10.476;2023-04-03T04:32:23;4.65;;;1.70;;
75584;SDS011;64162;53.508;10.476;2023-04-03T04:34:50;5.93;;;1.88;;
75584;SDS011;64162;53.508;10.476;2023-04-03T04:37:16;4.72;;;2.08;;
75584;SDS011;64162;53.508;10.476;2023-04-03T04:39:43;5.63;;;1.98;;
75584;SDS011;64162;53.508;10.476;2023-04-03T04:42:09;5.60;;;2.00;;
75584;SDS011;64162;53.508;10.476;2023-04-03T04:44:39;4.18;;;1.90;;
75584;SDS011;64162;53.508;10.476;2023-04-03T04:47:07;6.88;;;2.00;;
75584;SDS011;64162;53.508;10.476;2023-04-03T04:49:34;5.45;;;1.80;;
75584;SDS011;64162;53.508;10.476;2023-04-03T04:52:00;5.38;;;1.67;;
75584;SDS011;64162;53.508;10.476;2023-04-03T04:54:30;4.38;;;1.58;;
75584;SDS011;64162;53.508;10.476;2023-04-03T04:59:25;2.83;;;1.77;;
75584;SDS011;64162;53.508;10.476;2023-04-03T05:01:54;2.45;;;1.58;;
75584;SDS011;64162;53.508;10.476;2023-04-03T05:04:21;5.25;;;1.90;;
75584;SDS011;64162;53.508;10.476;2023-04-03T05:06:52;2.85;;;1.77;;
75584;SDS011;64162;53.508;10.476;2023-04-03T05:09:22;7.55;;;1.90;;
75584;SDS011;64162;53.508;10.476;2023-04-03T05:11:51;3.92;;;1.80;;
75584;SDS011;64162;53.508;10.476;2023-04-03T05:14:20;2.30;;;1.60;;
75584;SDS011;64162;53.508;10.476;2023-04-03T05:19:15;4.85;;;1.58;;
75584;SDS011;64162;53.508;10.476;2023-04-03T05:21:42;2.88;;;1.50;;
75584;SDS011;64162;53.508;10.476;2023-04-03T05:24:12;8.20;;;2.20;;
75584;SDS011;64162;53.508;10.476;2023-04-03T05:26:41;5.82;;;1.98;;
75584;SDS011;64162;53.508;10.476;2023-04-03T05:29:09;4.63;;;1.83;;
75584;SDS011;64162;53.508;10.476;2023-04-03T05:31:36;4.43;;;1.85;;
75584;SDS011;64162;53.508;10.476;2023-04-03T05:34:07;5.28;;;1.80;;
75584;SDS011;64162;53.508;10.476;2023-04-03T05:36:35;3.45;;;1.98;;
75584;SDS011;64162;53.508;10.476;2023-04-03T05:39:04;5.07;;;2.17;;
75584;SDS011;64162;53.508;10.476;2023-04-03T05:41:35;3.72;;;1.60;;
75584;SDS011;64162;53.508;10.476;2023-04-03T05:44:01;2.25;;;1.33;;
75584;SDS011;64162;53.508;10.476;2023-04-03T05:46:28;3.75;;;1.80;;
75584;SDS011;64162;53.508;10.476;2023-04-03T05:48:57;5.43;;;2.05;;
75584;SDS011;64162;53.508;10.476;2023-04-03T05:51:29;3.50;;;1.73;;
75584;SDS011;64162;53.508;10.476;2023-04-03T05:54:09;3.30;;;1.65;;
75584;SDS011;64162;53.508;10.476;2023-04-03T05:56:42;4.35;;;1.90;;
75584;SDS011;64162;53.508;10.476;2023-04-03T05:59:09;2.63;;;1.52;;
75584;SDS011;64162;53.508;10.476;2023-04-03T06:04:03;6.45;;;1.60;;
75584;SDS011;64162;53.508;10.476;2023-04-03T06:06:42;7.00;;;1.73;;
75584;SDS011;64162;53.508;10.476;2023-04-03T06:09:10;10.27;;;2.00;;
75584;SDS011;64162;53.508;10.476;2023-04-03T06:14:05;5.93;;;1.60;;
75584;SDS011;64162;53.508;10.476;2023-04-03T06:16:33;6.85;;;1.88;;
75584;SDS011;64162;53.508;10.476;2023-04-03T06:19:00;6.63;;;2.03;;
75584;SDS011;64162;53.508;10.476;2023-04-03T06:21:27;3.83;;;1.77;;
75584;SDS011;64162;53.508;10.476;2023-04-03T06:23:54;6.00;;;2.30;;
75584;SDS011;64162;53.508;10.476;2023-04-03T06:28:48;3.80;;;1.58;;
75584;SDS011;64162;53.508;10.476;2023-04-03T06:31:15;2.95;;;1.60;;
75584;SDS011;64162;53.508;10.476;2023-04-03T06:33:41;7.60;;;1.70;;
75584;SDS011;64162;53.508;10.476;2023-04-03T06:36:09;2.45;;;1.25;;
75584;SDS011;64162;53.508;10.476;2023-04-03T06:38:37;3.38;;;1.55;;
75584;SDS011;64162;53.508;10.476;2023-04-03T06:41:04;4.25;;;1.60;;
75584;SDS011;64162;53.508;10.476;2023-04-03T06:43:31;4.28;;;1.77;;
75584;SDS011;64162;53.508;10.476;2023-04-03T06:45:59;9.38;;;2.00;;
75584;SDS011;64162;53.508;10.476;2023-04-03T06:48:26;4.15;;;1.80;;
75584;SDS011;64162;53.508;10.476;2023-04-03T06:50:52;2.45;;;1.40;;
75584;SDS011;64162;53.508;10.476;2023-04-03T06:53:19;4.40;;;1.60;;
75584;SDS011;64162;53.508;10.476;2023-04-03T06:55:46;3.00;;;1.40;;
75584;SDS011;64162;53.508;10.476;2023-04-03T06:58:13;3.65;;;1.33;;
75584;SDS011;64162;53.508;10.476;2023-04-03T07:00:41;3.08;;;1.60;;
75584;SDS011;64162;53.508;10.476;2023-04-03T07:03:08;5.47;;;1.50;;
75584;SDS011;64162;53.508;10.476;2023-04-03T07:05:34;7.97;;;1.60;;
75584;SDS011;64162;53.508;10.476;2023-04-03T07:08:01;2.72;;;1.88;;
75584;SDS011;64162;53.508;10.476;2023-04-03T07:10:27;3.33;;;1.48;;
75584;SDS011;64162;53.508;10.476;2023-04-03T07:12:54;4.22;;;1.30;;
75584;SDS011;64162;53.508;10.476;2023-04-03T07:15:20;2.88;;;1.20;;
75584;SDS011;64162;53.508;10.476;2023-04-03T07:17:48;3.35;;;1.30;;
75584;SDS011;64162;53.508;10.476;2023-04-03T07:20:14;4.75;;;1.55;;
75584;SDS011;64162;53.508;10.476;2023-04-03T07:22:41;6.97;;;1.83;;
75584;SDS011;64162;53.508;10.476;2023-04-03T07:25:08;8.95;;;1.40;;
75584;SDS011;64162;53.508;10.476;2023-04-03T07:30:01;2.10;;;0.95;;
75584;SDS011;64162;53.508;10.476;2023-04-03T07:32:28;4.68;;;1.50;;
75584;SDS011;64162;53.508;10.476;2023-04-03T07:37:21;6.13;;;1.23;;
75584;SDS011;64162;53.508;10.476;2023-04-03T07:39:48;2.63;;;1.08;;
75584;SDS011;64162;53.508;10.476;2023-04-03T07:42:15;1.88;;;1.02;;
75584;SDS011;64162;53.508;10.476;2023-04-03T07:44:41;5.57;;;1.45;;
75584;SDS011;64162;53.508;10.476;2023-04-03T07:47:09;3.42;;;1.10;;
75584;SDS011;64162;53.508;10.476;2023-04-03T07:49:36;2.55;;;1.23;;
75584;SDS011;64162;53.508;10.476;2023-04-03T07:52:06;2.53;;;0.90;;
75584;SDS011;64162;53.508;10.476;2023-04-03T07:54:35;1.45;;;1.00;;
75584;SDS011;64162;53.508;10.476;2023-04-03T07:57:02;2.67;;;0.90;;
75584;SDS011;64162;53.508;10.476;2023-04-03T07:59:29;1.48;;;1.02;;
75584;SDS011;64162;53.508;10.476;2023-04-03T08:04:22;3.60;;;1.17;;
75584;SDS011;64162;53.508;10.476;2023-04-03T08:06:49;2.28;;;1.13;;
75584;SDS011;64162;53.508;10.476;2023-04-03T08:09:15;3.17;;;1.17;;
75584;SDS011;64162;53.508;10.476;2023-04-03T08:11:42;3.75;;;1.10;;
75584;SDS011;64162;53.508;10.476;2023-04-03T08:14:10;4.00;;;1.10;;
75584;SDS011;64162;53.508;10.476;2023-04-03T08:16:43;3.88;;;1.00;;
75584;SDS011;64162;53.508;10.476;2023-04-03T08:19:10;5.00;;;1.45;;
75584;SDS011;64162;53.508;10.476;2023-04-03T08:21:40;1.08;;;0.98;;
75584;SDS011;64162;53.508;10.476;2023-04-03T08:24:07;1.88;;;1.13;;
75584;SDS011;64162;53.508;10.476;2023-04-03T08:26:35;3.55;;;0.85;;
75584;SDS011;64162;53.508;10.476;2023-04-03T08:29:02;1.95;;;1.00;;
75584;SDS011;64162;53.508;10.476;2023-04-03T08:31:29;2.88;;;0.90;;
75584;SDS011;64162;53.508;10.476;2023-04-03T08:36:24;1.30;;;1.20;;
75584;SDS011;64162;53.508;10.476;2023-04-03T08:38:53;1.50;;;1.00;;
75584;SDS011;64162;53.508;10.476;2023-04-03T08:41:31;2.65;;;0.95;;
75584;SDS011;64162;53.508;10.476;2023-04-03T08:49:52;2.50;;;0.70;;
75584;SDS011;64162;53.508;10.476;2023-04-03T08:52:36;3.80;;;1.20;;
75584;SDS011;64162;53.508;10.476;2023-04-03T08:58:09;1.17;;;0.90;;
75584;SDS011;64162;53.508;10.476;2023-04-03T09:00:46;3.83;;;1.30;;
75584;SDS011;64162;53.508;10.476;2023-04-03T09:03:36;0.63;;;0.50;;
75584;SDS011;64162;53.508;10.476;2023-04-03T09:11:57;0.82;;;0.75;;
75584;SDS011;64162;53.508;10.476;2023-04-03T09:14:50;1.05;;;0.68;;
75584;SDS011;64162;53.508;10.476;2023-04-03T09:19:56;2.53;;;0.88;;
75584;SDS011;64162;53.508;10.476;2023-04-03T09:22:28;1.98;;;1.13;;
75584;SDS011;64162;53.508;10.476;2023-04-03T09:25:01;1.50;;;0.90;;
75584;SDS011;64162;53.508;10.476;2023-04-03T09:27:31;1.35;;;0.88;;
75584;SDS011;64162;53.508;10.476;2023-04-03T09:29:58;2.65;;;1.10;;
75584;SDS011;64162;53.508;10.476;2023-04-03T09:34:54;1.70;;;1.17;;
75584;SDS011;64162;53.508;10.476;2023-04-03T09:40:12;2.38;;;1.58;;
75584;SDS011;64162;53.508;10.476;2023-04-03T09:42:53;3.45;;;1.13;;
75584;SDS011;64162;53.508;10.476;2023-04-03T09:45:30;1.77;;;1.15;;
75584;SDS011;64162;53.508;10.476;2023-04-03T09:48:07;1.77;;;1.10;;
75584;SDS011;64162;53.508;10.476;2023-04-03T09:53:30;3.88;;;2.17;;
75584;SDS011;64162;53.508;10.476;2023-04-03T09:58:44;2.47;;;1.20;;
75584;SDS011;64162;53.508;10.476;2023-04-03T10:01:28;3.28;;;1.30;;
75584;SDS011;64162;53.508;10.476;2023-04-03T10:04:02;2.88;;;1.20;;
75584;SDS011;64162;53.508;10.476;2023-04-03T10:06:41;5.28;;;1.20;;
75584;SDS011;64162;53.508;10.476;2023-04-03T10:09:31;1.58;;;1.10;;
75584;SDS011;64162;53.508;10.476;2023-04-03T10:12:03;3.25;;;1.50;;
75584;SDS011;64162;53.508;10.476;2023-04-03T10:14:34;4.47;;;1.85;;
75584;SDS011;64162;53.508;10.476;2023-04-03T10:17:09;2.22;;;1.20;;
75584;SDS011;64162;53.508;10.476;2023-04-03T10:22:18;3.75;;;1.40;;
75584;SDS011;64162;53.508;10.476;2023-04-03T10:30:57;3.30;;;1.60;;
75584;SDS011;64162;53.508;10.476;2023-04-03T10:33:39;1.48;;;1.30;;
75584;SDS011;64162;53.508;10.476;2023-04-03T10:47:41;3.28;;;1.60;;
75584;SDS011;64162;53.508;10.476;2023-04-03T10:50:44;2.72;;;1.48;;
75584;SDS011;64162;53.508;10.476;2023-04-03T10:53:26;3.55;;;1.50;;
75584;SDS011;64162;53.508;10.476;2023-04-03T10:56:26;3.67;;;1.80;;
75584;SDS011;64162;53.508;10.476;2023-04-03T10:58:58;2.58;;;1.30;;
75584;SDS011;64162;53.508;10.476;2023-04-03T11:01:41;3.75;;;1.45;;
75584;SDS011;64162;53.508;10.476;2023-04-03T11:04:10;2.13;;;1.30;;
75584;SDS011;64162;53.508;10.476;2023-04-03T11:06:40;4.65;;;1.40;;
75584;SDS011;64162;53.508;10.476;2023-04-03T11:09:16;2.08;;;1.30;;
75584;SDS011;64162;53.508;10.476;2023-04-03T11:11:48;2.17;;;1.30;;
75584;SDS011;64162;53.508;10.476;2023-04-03T11:14:21;3.03;;;1.10;;
75584;SDS011;64162;53.508;10.476;2023-04-03T11:20:04;2.08;;;1.10;;
75584;SDS011;64162;53.508;10.476;2023-04-03T11:22:36;2.58;;;1.30;;
75584;SDS011;64162;53.508;10.476;2023-04-03T11:27:40;2.38;;;1.23;;
75584;SDS011;64162;53.508;10.476;2023-04-03T11:30:13;1.40;;;1.00;;
75584;SDS011;64162;53.508;10.476;2023-04-03T11:37:59;2.05;;;1.00;;
75584;SDS011;64162;53.508;10.476;2023-04-03T11:40:29;3.55;;;1.35;;
75584;SDS011;64162;53.508;10.476;2023-04-03T11:45:31;3.38;;;1.30;;
75584;SDS011;64162;53.508;10.476;2023-04-03T11:50:53;1.58;;;1.10;;
75584;SDS011;64162;53.508;10.476;2023-04-03T11:53:32;2.90;;;1.50;;
75584;SDS011;64162;53.508;10.476;2023-04-03T11:56:47;4.28;;;1.80;;
75584;SDS011;64162;53.508;10.476;2023-04-03T12:01:47;3.05;;;1.30;;
75584;SDS011;64162;53.508;10.476;2023-04-03T12:04:22;2.50;;;1.20;;
75584;SDS011;64162;53.508;10.476;2023-04-03T12:06:52;2.30;;;1.30;;
75584;SDS011;64162;53.508;10.476;2023-04-03T12:15:19;4.10;;;1.30;;
75584;SDS011;64162;53.508;10.476;2023-04-03T12:17:48;3.05;;;1.55;;
75584;SDS011;64162;53.508;10.476;2023-04-03T12:23:28;4.22;;;1.10;;
75584;SDS011;64162;53.508;10.476;2023-04-03T12:26:03;3.15;;;1.33;;
75584;SDS011;64162;53.508;10.476;2023-04-03T12:45:52;3.00;;;1.40;;
75584;SDS011;64162;53.508;10.476;2023-04-03T12:48:30;1.63;;;1.20;;
75584;SDS011;64162;53.508;10.476;2023-04-03T12:50:58;2.47;;;1.45;;
75584;SDS011;64162;53.508;10.476;2023-04-03T12:53:31;2.13;;;1.30;;
75584;SDS011;64162;53.508;10.476;2023-04-03T12:58:48;2.15;;;1.10;;
75584;SDS011;64162;53.508;10.476;2023-04-03T13:01:17;3.28;;;1.42;;
75584;SDS011;64162;53.508;10.476;2023-04-03T13:03:48;2.35;;;1.08;;
75584;SDS011;64162;53.508;10.476;2023-04-03T13:06:28;1.73;;;1.40;;
75584;SDS011;64162;53.508;10.476;2023-04-03T13:09:01;2.92;;;1.40;;
75584;SDS011;64162;53.508;10.476;2023-04-03T13:11:30;2.70;;;1.38;;
75584;SDS011;64162;53.508;10.476;2023-04-03T13:14:03;1.30;;;1.20;;
75584;SDS011;64162;53.508;10.476;2023-04-03T13:16:32;2.60;;;1.23;;
75584;SDS011;64162;53.508;10.476;2023-04-03T13:18:59;4.38;;;1.60;;
75584;SDS011;64162;53.508;10.476;2023-04-03T13:21:27;1.77;;;0.93;;
75584;SDS011;64162;53.508;10.476;2023-04-03T13:23:59;3.45;;;1.10;;
75584;SDS011;64162;53.508;10.476;2023-04-03T13:26:31;1.60;;;1.20;;
75584;SDS011;64162;53.508;10.476;2023-04-03T13:29:00;3.05;;;1.20;;
75584;SDS011;64162;53.508;10.476;2023-04-03T13:31:30;2.10;;;1.30;;
75584;SDS011;64162;53.508;10.476;2023-04-03T13:34:19;2.50;;;1.20;;
75584;SDS011;64162;53.508;10.476;2023-04-03T13:41:50;1.85;;;1.20;;
75584;SDS011;64162;53.508;10.476;2023-04-03T13:49:38;2.28;;;1.00;;
75584;SDS011;64162;53.508;10.476;2023-04-03T13:55:22;2.42;;;1.10;;
75584;SDS011;64162;53.508;10.476;2023-04-03T13:58:03;3.10;;;1.10;;
75584;SDS011;64162;53.508;10.476;2023-04-03T14:00:53;2.00;;;1.20;;
75584;SDS011;64162;53.508;10.476;2023-04-03T14:03:36;2.70;;;1.42;;
75584;SDS011;64162;53.508;10.476;2023-04-03T14:06:09;4.72;;;1.35;;
75584;SDS011;64162;53.508;10.476;2023-04-03T14:08:37;2.60;;;1.83;;
75584;SDS011;64162;53.508;10.476;2023-04-03T14:11:12;2.42;;;1.50;;
75584;SDS011;64162;53.508;10.476;2023-04-03T14:13:42;2.58;;;1.25;;
75584;SDS011;64162;53.508;10.476;2023-04-03T14:16:16;2.47;;;1.52;;
75584;SDS011;64162;53.508;10.476;2023-04-03T14:18:46;2.53;;;1.42;;
75584;SDS011;64162;53.508;10.476;2023-04-03T14:21:14;2.17;;;1.38;;
75584;SDS011;64162;53.508;10.476;2023-04-03T14:23:43;3.38;;;1.58;;
75584;SDS011;64162;53.508;10.476;2023-04-03T14:26:15;3.22;;;1.38;;
75584;SDS011;64162;53.508;10.476;2023-04-03T14:28:44;2.70;;;1.20;;
75584;SDS011;64162;53.508;10.476;2023-04-03T14:31:12;2.53;;;1.33;;
75584;SDS011;64162;53.508;10.476;2023-04-03T14:33:39;3.22;;;1.20;;
75584;SDS011;64162;53.508;10.476;2023-04-03T14:38:38;2.58;;;1.33;;
75584;SDS011;64162;53.508;10.476;2023-04-03T14:41:05;2.03;;;1.30;;
75584;SDS011;64162;53.508;10.476;2023-04-03T14:43:39;2.85;;;1.30;;
75584;SDS011;64162;53.508;10.476;2023-04-03T14:46:09;3.17;;;1.33;;
75584;SDS011;64162;53.508;10.476;2023-04-03T14:48:39;2.20;;;1.45;;
75584;SDS011;64162;53.508;10.476;2023-04-03T14:51:06;4.20;;;1.65;;
75584;SDS011;64162;53.508;10.476;2023-04-03T14:53:37;2.95;;;1.50;;
75584;SDS011;64162;53.508;10.476;2023-04-03T14:56:09;2.88;;;1.42;;
75584;SDS011;64162;53.508;10.476;2023-04-03T14:58:42;1.95;;;1.30;;
75584;SDS011;64162;53.508;10.476;2023-04-03T15:01:12;2.65;;;1.27;;
75584;SDS011;64162;53.508;10.476;2023-04-03T15:03:40;3.45;;;1.60;;
75584;SDS011;64162;53.508;10.476;2023-04-03T15:06:08;1.92;;;1.33;;
75584;SDS011;64162;53.508;10.476;2023-04-03T15:08:37;2.55;;;1.58;;
75584;SDS011;64162;53.508;10.476;2023-04-03T15:11:04;3.35;;;1.50;;
75584;SDS011;64162;53.508;10.476;2023-04-03T15:13:31;3.25;;;1.50;;
75584;SDS011;64162;53.508;10.476;2023-04-03T15:15:57;3.42;;;1.52;;
75584;SDS011;64162;53.508;10.476;2023-04-03T15:18:25;1.92;;;1.35;;
75584;SDS011;64162;53.508;10.476;2023-04-03T15:20:54;1.98;;;1.38;;
75584;SDS011;64162;53.508;10.476;2023-04-03T15:23:21;2.88;;;1.40;;
75584;SDS011;64162;53.508;10.476;2023-04-03T15:25:52;3.03;;;1.50;;
75584;SDS011;64162;53.508;10.476;2023-04-03T15:28:30;3.33;;;1.55;;
75584;SDS011;64162;53.508;10.476;2023-04-03T15:31:06;2.13;;;1.52;;
75584;SDS011;64162;53.508;10.476;2023-04-03T15:33:33;2.63;;;1.35;;
75584;SDS011;64162;53.508;10.476;2023-04-03T15:36:01;3.45;;;1.30;;
75584;SDS011;64162;53.508;10.476;2023-04-03T15:38:31;3.08;;;1.30;;
75584;SDS011;64162;53.508;10.476;2023-04-03T15:40:58;1.90;;;1.17;;
75584;SDS011;64162;53.508;10.476;2023-04-03T15:43:24;3.35;;;1.55;;
75584;SDS011;64162;53.508;10.476;2023-04-03T15:45:51;3.72;;;1.50;;
75584;SDS011;64162;53.508;10.476;2023-04-03T15:48:18;3.15;;;1.50;;
75584;SDS011;64162;53.508;10.476;2023-04-03T15:50:45;4.25;;;1.50;;
75584;SDS011;64162;53.508;10.476;2023-04-03T15:53:11;3.90;;;1.50;;
75584;SDS011;64162;53.508;10.476;2023-04-03T15:55:38;3.03;;;1.77;;
75584;SDS011;64162;53.508;10.476;2023-04-03T15:58:05;2.83;;;1.40;;
75584;SDS011;64162;53.508;10.476;2023-04-03T16:00:32;3.25;;;1.50;;
75584;SDS011;64162;53.508;10.476;2023-04-03T16:02:59;4.05;;;1.70;;
75584;SDS011;64162;53.508;10.476;2023-04-03T16:05:30;3.20;;;1.30;;
75584;SDS011;64162;53.508;10.476;2023-04-03T16:07:58;3.15;;;1.30;;
75584;SDS011;64162;53.508;10.476;2023-04-03T16:10:26;2.95;;;1.55;;
75584;SDS011;64162;53.508;10.476;2023-04-03T16:12:53;4.03;;;1.50;;
75584;SDS011;64162;53.508;10.476;2023-04-03T16:15:20;6.57;;;1.60;;
75584;SDS011;64162;53.508;10.476;2023-04-03T16:17:46;2.42;;;1.48;;
75584;SDS011;64162;53.508;10.476;2023-04-03T16:20:14;4.78;;;1.80;;
75584;SDS011;64162;53.508;10.476;2023-04-03T16:22:41;4.38;;;1.73;;
75584;SDS011;64162;53.508;10.476;2023-04-03T16:25:09;3.03;;;1.83;;
75584;SDS011;64162;53.508;10.476;2023-04-03T16:27:36;5.43;;;2.50;;
75584;SDS011;64162;53.508;10.476;2023-04-03T16:30:04;4.60;;;1.80;;
75584;SDS011;64162;53.508;10.476;2023-04-03T16:32:31;4.50;;;2.20;;
75584;SDS011;64162;53.508;10.476;2023-04-03T16:34:58;3.55;;;2.10;;
75584;SDS011;64162;53.508;10.476;2023-04-03T16:37:27;4.80;;;2.30;;
75584;SDS011;64162;53.508;10.476;2023-04-03T16:39:54;1.48;;;1.33;;
75584;SDS011;64162;53.508;10.476;2023-04-03T16:42:20;3.75;;;1.80;;
75584;SDS011;64162;53.508;10.476;2023-04-03T16:47:13;3.33;;;1.60;;
75584;SDS011;64162;53.508;10.476;2023-04-03T16:49:40;3.55;;;1.70;;
75584;SDS011;64162;53.508;10.476;2023-04-03T16:52:06;4.55;;;1.90;;
75584;SDS011;64162;53.508;10.476;2023-04-03T16:57:00;4.30;;;1.67;;
75584;SDS011;64162;53.508;10.476;2023-04-03T17:01:53;3.17;;;1.40;;
75584;SDS011;64162;53.508;10.476;2023-04-03T17:04:20;10.82;;;1.67;;
75584;SDS011;64162;53.508;10.476;2023-04-03T17:09:13;2.95;;;1.55;;
75584;SDS011;64162;53.508;10.476;2023-04-03T17:14:06;6.90;;;2.08;;
75584;SDS011;64162;53.508;10.476;2023-04-03T17:16:34;4.68;;;2.00;;
75584;SDS011;64162;53.508;10.476;2023-04-03T17:19:03;5.20;;;1.80;;
75584;SDS011;64162;53.508;10.476;2023-04-03T17:21:30;2.25;;;1.58;;
75584;SDS011;64162;53.508;10.476;2023-04-03T17:24:02;4.68;;;2.15;;
75584;SDS011;64162;53.508;10.476;2023-04-03T17:26:30;10.68;;;3.80;;
75584;SDS011;64162;53.508;10.476;2023-04-03T17:28:57;4.88;;;3.95;;